sensor_id;sensor_type;location;lat;lon;timestamp;P1;durP1;ratioP1;P2;durP2;ratioP2
44664;SDS011;30382;48.802;9.388;2023-07-08T00:02:15;7.87;;;5.83;;
44664;SDS011;30382;48.802;9.388;2023-07-08T00:04:59;8.30;;;6.23;;
44664;SDS011;30382;48.802;9.388;2023-07-08T00:07:44;6.73;;;5.90;;
44664;SDS011;30382;48.802;9.388;2023-07-08T00:10:29;6.67;;;5.63;;
44664;SDS011;30382;48.802;9.388;2023-07-08T00:13:13;7.63;;;6.30;;
44664;SDS011;30382;48.802;9.388;2023-07-08T00:15:58;6.40;;;5.80;;
44664;SDS011;30382;48.802;9.388;2023-07-08T00:18:42;7.73;;;5.47;;
44664;SDS011;30382;48.802;9.388;2023-07-08T00:21:26;6.73;;;5.90;;
44664;SDS011;30382;48.802;9.388;2023-07-08T00:24:11;7.80;;;6.03;;
44664;SDS011;30382;48.802;9.388;2023-07-08T00:26:56;8.90;;;6.90;;
44664;SDS011;30382;48.802;9.388;2023-07-08T00:29:40;6.50;;;5.80;;
44664;SDS011;30382;48.802;9.388;2023-07-08T00:32:24;7.33;;;6.30;;
44664;SDS011;30382;48.802;9.388;2023-07-08T00:35:10;6.03;;;5.43;;
44664;SDS011;30382;48.802;9.388;2023-07-08T00:37:54;6.47;;;5.87;;
44664;SDS011;30382;48.802;9.388;2023-07-08T00:40:53;6.80;;;5.80;;
44664;SDS011;30382;48.802;9.388;2023-07-08T00:43:43;6.03;;;5.40;;
44664;SDS011;30382;48.802;9.388;2023-07-08T00:50:02;8.63;;;6.47;;
44664;SDS011;30382;48.802;9.388;2023-07-08T00:52:28;6.63;;;5.27;;
44664;SDS011;30382;48.802;9.388;2023-07-08T00:55:13;7.47;;;5.53;;
44664;SDS011;30382;48.802;9.388;2023-07-08T00:57:58;8.57;;;6.50;;
44664;SDS011;30382;48.802;9.388;2023-07-08T01:00:42;6.43;;;5.57;;
44664;SDS011;30382;48.802;9.388;2023-07-08T01:03:26;6.50;;;5.57;;
44664;SDS011;30382;48.802;9.388;2023-07-08T01:06:13;7.20;;;5.73;;
44664;SDS011;30382;48.802;9.388;2023-07-08T01:08:57;6.77;;;5.67;;
44664;SDS011;30382;48.802;9.388;2023-07-08T01:11:43;6.40;;;5.50;;
44664;SDS011;30382;48.802;9.388;2023-07-08T01:14:27;6.70;;;5.40;;
44664;SDS011;30382;48.802;9.388;2023-07-08T01:17:12;9.30;;;6.40;;
44664;SDS011;30382;48.802;9.388;2023-07-08T01:19:58;7.17;;;6.40;;
44664;SDS011;30382;48.802;9.388;2023-07-08T01:22:43;5.70;;;5.10;;
44664;SDS011;30382;48.802;9.388;2023-07-08T01:25:27;6.07;;;5.47;;
44664;SDS011;30382;48.802;9.388;2023-07-08T01:28:12;8.20;;;6.60;;
44664;SDS011;30382;48.802;9.388;2023-07-08T01:30:56;6.23;;;5.63;;
44664;SDS011;30382;48.802;9.388;2023-07-08T01:33:41;10.00;;;6.57;;
44664;SDS011;30382;48.802;9.388;2023-07-08T01:36:27;7.33;;;6.40;;
44664;SDS011;30382;48.802;9.388;2023-07-08T01:39:13;6.63;;;5.83;;
44664;SDS011;30382;48.802;9.388;2023-07-08T01:41:58;7.13;;;5.80;;
44664;SDS011;30382;48.802;9.388;2023-07-08T01:44:43;7.67;;;5.37;;
44664;SDS011;30382;48.802;9.388;2023-07-08T01:47:27;10.50;;;5.27;;
44664;SDS011;30382;48.802;9.388;2023-07-08T01:50:11;6.90;;;5.47;;
44664;SDS011;30382;48.802;9.388;2023-07-08T01:52:56;7.50;;;5.73;;
44664;SDS011;30382;48.802;9.388;2023-07-08T01:55:41;6.03;;;5.33;;
44664;SDS011;30382;48.802;9.388;2023-07-08T01:58:26;8.70;;;5.80;;
44664;SDS011;30382;48.802;9.388;2023-07-08T02:01:10;12.63;;;6.70;;
44664;SDS011;30382;48.802;9.388;2023-07-08T02:03:55;5.80;;;5.20;;
44664;SDS011;30382;48.802;9.388;2023-07-08T02:06:39;9.73;;;6.23;;
44664;SDS011;30382;48.802;9.388;2023-07-08T02:09:27;8.40;;;5.80;;
44664;SDS011;30382;48.802;9.388;2023-07-08T02:12:12;9.63;;;5.87;;
44664;SDS011;30382;48.802;9.388;2023-07-08T02:15:00;8.27;;;5.97;;
44664;SDS011;30382;48.802;9.388;2023-07-08T02:17:44;5.97;;;5.37;;
44664;SDS011;30382;48.802;9.388;2023-07-08T02:20:29;6.23;;;5.53;;
44664;SDS011;30382;48.802;9.388;2023-07-08T02:23:16;7.37;;;5.67;;
44664;SDS011;30382;48.802;9.388;2023-07-08T02:26:00;10.70;;;6.70;;
44664;SDS011;30382;48.802;9.388;2023-07-08T02:28:44;8.53;;;5.63;;
44664;SDS011;30382;48.802;9.388;2023-07-08T02:31:29;8.50;;;5.40;;
44664;SDS011;30382;48.802;9.388;2023-07-08T02:34:13;10.20;;;7.27;;
44664;SDS011;30382;48.802;9.388;2023-07-08T02:36:59;7.27;;;5.40;;
44664;SDS011;30382;48.802;9.388;2023-07-08T02:39:43;7.23;;;5.37;;
44664;SDS011;30382;48.802;9.388;2023-07-08T02:42:28;6.73;;;5.90;;
44664;SDS011;30382;48.802;9.388;2023-07-08T02:45:13;7.43;;;6.10;;
44664;SDS011;30382;48.802;9.388;2023-07-08T02:47:57;8.40;;;5.77;;
44664;SDS011;30382;48.802;9.388;2023-07-08T02:50:42;6.17;;;5.27;;
44664;SDS011;30382;48.802;9.388;2023-07-08T02:53:26;7.33;;;5.90;;
44664;SDS011;30382;48.802;9.388;2023-07-08T02:56:10;6.00;;;5.10;;
44664;SDS011;30382;48.802;9.388;2023-07-08T02:58:55;7.20;;;6.17;;
44664;SDS011;30382;48.802;9.388;2023-07-08T03:01:39;5.73;;;5.13;;
44664;SDS011;30382;48.802;9.388;2023-07-08T03:04:26;11.70;;;7.33;;
44664;SDS011;30382;48.802;9.388;2023-07-08T03:07:11;7.27;;;6.03;;
44664;SDS011;30382;48.802;9.388;2023-07-08T03:09:55;9.07;;;7.93;;
44664;SDS011;30382;48.802;9.388;2023-07-08T03:12:41;8.03;;;5.77;;
44664;SDS011;30382;48.802;9.388;2023-07-08T03:15:25;5.87;;;5.03;;
44664;SDS011;30382;48.802;9.388;2023-07-08T03:18:09;8.57;;;5.97;;
44664;SDS011;30382;48.802;9.388;2023-07-08T03:20:54;8.77;;;6.00;;
44664;SDS011;30382;48.802;9.388;2023-07-08T03:23:40;8.23;;;5.37;;
44664;SDS011;30382;48.802;9.388;2023-07-08T03:26:25;7.13;;;5.60;;
44664;SDS011;30382;48.802;9.388;2023-07-08T03:29:15;7.60;;;5.60;;
44664;SDS011;30382;48.802;9.388;2023-07-08T03:32:01;9.10;;;6.00;;
44664;SDS011;30382;48.802;9.388;2023-07-08T03:34:45;6.50;;;5.77;;
44664;SDS011;30382;48.802;9.388;2023-07-08T03:37:29;6.47;;;4.97;;
44664;SDS011;30382;48.802;9.388;2023-07-08T03:40:14;6.27;;;5.30;;
44664;SDS011;30382;48.802;9.388;2023-07-08T03:42:58;12.20;;;5.60;;
44664;SDS011;30382;48.802;9.388;2023-07-08T03:45:46;6.13;;;5.03;;
44664;SDS011;30382;48.802;9.388;2023-07-08T03:48:32;8.40;;;6.43;;
44664;SDS011;30382;48.802;9.388;2023-07-08T03:51:21;8.40;;;6.10;;
44664;SDS011;30382;48.802;9.388;2023-07-08T03:54:06;6.33;;;5.43;;
44664;SDS011;30382;48.802;9.388;2023-07-08T03:56:53;7.00;;;6.30;;
44664;SDS011;30382;48.802;9.388;2023-07-08T03:59:38;7.20;;;5.70;;
44664;SDS011;30382;48.802;9.388;2023-07-08T04:02:23;6.53;;;5.30;;
44664;SDS011;30382;48.802;9.388;2023-07-08T04:05:10;10.00;;;6.10;;
44664;SDS011;30382;48.802;9.388;2023-07-08T04:07:56;8.50;;;6.20;;
44664;SDS011;30382;48.802;9.388;2023-07-08T04:10:41;6.70;;;6.10;;
44664;SDS011;30382;48.802;9.388;2023-07-08T04:13:25;7.77;;;6.10;;
44664;SDS011;30382;48.802;9.388;2023-07-08T04:16:20;9.73;;;6.10;;
44664;SDS011;30382;48.802;9.388;2023-07-08T04:19:05;8.47;;;6.30;;
44664;SDS011;30382;48.802;9.388;2023-07-08T04:21:57;7.40;;;5.90;;
44664;SDS011;30382;48.802;9.388;2023-07-08T04:24:41;7.63;;;6.20;;
44664;SDS011;30382;48.802;9.388;2023-07-08T04:27:25;8.43;;;6.30;;
44664;SDS011;30382;48.802;9.388;2023-07-08T04:30:23;8.23;;;6.10;;
44664;SDS011;30382;48.802;9.388;2023-07-08T04:33:08;10.47;;;6.03;;
44664;SDS011;30382;48.802;9.388;2023-07-08T04:35:52;11.97;;;6.13;;
44664;SDS011;30382;48.802;9.388;2023-07-08T04:38:38;11.03;;;6.53;;
44664;SDS011;30382;48.802;9.388;2023-07-08T04:41:22;9.67;;;6.90;;
44664;SDS011;30382;48.802;9.388;2023-07-08T04:44:07;8.53;;;5.97;;
44664;SDS011;30382;48.802;9.388;2023-07-08T04:46:52;9.20;;;6.77;;
44664;SDS011;30382;48.802;9.388;2023-07-08T04:49:37;9.40;;;6.30;;
44664;SDS011;30382;48.802;9.388;2023-07-08T04:52:22;7.67;;;6.17;;
44664;SDS011;30382;48.802;9.388;2023-07-08T04:55:06;8.47;;;6.73;;
44664;SDS011;30382;48.802;9.388;2023-07-08T04:57:51;8.13;;;6.23;;
44664;SDS011;30382;48.802;9.388;2023-07-08T05:00:35;10.53;;;6.10;;
44664;SDS011;30382;48.802;9.388;2023-07-08T05:03:19;8.30;;;5.37;;
44664;SDS011;30382;48.802;9.388;2023-07-08T05:06:04;9.20;;;6.63;;
44664;SDS011;30382;48.802;9.388;2023-07-08T05:08:48;7.60;;;6.00;;
44664;SDS011;30382;48.802;9.388;2023-07-08T05:11:32;10.40;;;6.30;;
44664;SDS011;30382;48.802;9.388;2023-07-08T05:14:16;8.03;;;7.00;;
44664;SDS011;30382;48.802;9.388;2023-07-08T05:17:01;7.80;;;5.87;;
44664;SDS011;30382;48.802;9.388;2023-07-08T05:19:45;7.00;;;5.40;;
44664;SDS011;30382;48.802;9.388;2023-07-08T05:22:30;7.40;;;5.70;;
44664;SDS011;30382;48.802;9.388;2023-07-08T05:25:15;7.47;;;6.10;;
44664;SDS011;30382;48.802;9.388;2023-07-08T05:27:59;7.90;;;6.60;;
44664;SDS011;30382;48.802;9.388;2023-07-08T05:30:44;13.83;;;7.40;;
44664;SDS011;30382;48.802;9.388;2023-07-08T05:33:29;7.50;;;6.27;;
44664;SDS011;30382;48.802;9.388;2023-07-08T05:36:13;9.20;;;7.27;;
44664;SDS011;30382;48.802;9.388;2023-07-08T05:38:57;6.40;;;5.70;;
44664;SDS011;30382;48.802;9.388;2023-07-08T05:41:42;8.03;;;6.23;;
44664;SDS011;30382;48.802;9.388;2023-07-08T05:44:26;7.20;;;6.37;;
44664;SDS011;30382;48.802;9.388;2023-07-08T05:47:10;7.67;;;6.20;;
44664;SDS011;30382;48.802;9.388;2023-07-08T05:49:54;6.10;;;5.50;;
44664;SDS011;30382;48.802;9.388;2023-07-08T05:52:39;9.30;;;7.23;;
44664;SDS011;30382;48.802;9.388;2023-07-08T05:55:23;7.80;;;6.13;;
44664;SDS011;30382;48.802;9.388;2023-07-08T05:58:08;7.30;;;6.43;;
44664;SDS011;30382;48.802;9.388;2023-07-08T06:00:56;7.90;;;6.03;;
44664;SDS011;30382;48.802;9.388;2023-07-08T06:03:40;7.23;;;5.90;;
44664;SDS011;30382;48.802;9.388;2023-07-08T06:06:25;7.33;;;6.50;;
44664;SDS011;30382;48.802;9.388;2023-07-08T06:09:09;15.67;;;7.43;;
44664;SDS011;30382;48.802;9.388;2023-07-08T06:11:54;8.60;;;6.27;;
44664;SDS011;30382;48.802;9.388;2023-07-08T06:14:39;7.70;;;6.13;;
44664;SDS011;30382;48.802;9.388;2023-07-08T06:17:23;9.27;;;6.60;;
44664;SDS011;30382;48.802;9.388;2023-07-08T06:20:07;9.37;;;6.63;;
44664;SDS011;30382;48.802;9.388;2023-07-08T06:22:52;8.33;;;6.47;;
44664;SDS011;30382;48.802;9.388;2023-07-08T06:25:36;7.47;;;6.00;;
44664;SDS011;30382;48.802;9.388;2023-07-08T06:28:21;9.30;;;6.50;;
44664;SDS011;30382;48.802;9.388;2023-07-08T06:31:05;10.30;;;6.10;;
44664;SDS011;30382;48.802;9.388;2023-07-08T06:33:50;8.40;;;7.20;;
44664;SDS011;30382;48.802;9.388;2023-07-08T06:36:35;8.70;;;7.30;;
44664;SDS011;30382;48.802;9.388;2023-07-08T06:39:19;8.43;;;7.60;;
44664;SDS011;30382;48.802;9.388;2023-07-08T06:42:03;7.97;;;7.07;;
44664;SDS011;30382;48.802;9.388;2023-07-08T06:44:50;9.33;;;7.20;;
44664;SDS011;30382;48.802;9.388;2023-07-08T06:47:35;9.30;;;8.30;;
44664;SDS011;30382;48.802;9.388;2023-07-08T06:50:19;7.93;;;6.80;;
44664;SDS011;30382;48.802;9.388;2023-07-08T06:53:03;7.37;;;6.60;;
44664;SDS011;30382;48.802;9.388;2023-07-08T06:55:48;7.10;;;5.90;;
44664;SDS011;30382;48.802;9.388;2023-07-08T06:58:33;8.03;;;7.23;;
44664;SDS011;30382;48.802;9.388;2023-07-08T07:01:18;8.23;;;6.80;;
44664;SDS011;30382;48.802;9.388;2023-07-08T07:04:03;7.30;;;6.37;;
44664;SDS011;30382;48.802;9.388;2023-07-08T07:06:47;8.43;;;7.57;;
44664;SDS011;30382;48.802;9.388;2023-07-08T07:09:31;7.77;;;6.20;;
44664;SDS011;30382;48.802;9.388;2023-07-08T07:12:15;7.10;;;6.40;;
44664;SDS011;30382;48.802;9.388;2023-07-08T07:15:00;8.23;;;6.93;;
44664;SDS011;30382;48.802;9.388;2023-07-08T07:17:44;6.63;;;6.03;;
44664;SDS011;30382;48.802;9.388;2023-07-08T07:20:29;8.00;;;6.70;;
44664;SDS011;30382;48.802;9.388;2023-07-08T07:23:13;6.80;;;5.00;;
44664;SDS011;30382;48.802;9.388;2023-07-08T07:25:58;8.47;;;5.80;;
44664;SDS011;30382;48.802;9.388;2023-07-08T07:28:42;7.43;;;5.50;;
44664;SDS011;30382;48.802;9.388;2023-07-08T07:31:26;6.90;;;6.17;;
44664;SDS011;30382;48.802;9.388;2023-07-08T07:34:10;7.23;;;6.30;;
44664;SDS011;30382;48.802;9.388;2023-07-08T07:36:56;6.97;;;6.00;;
44664;SDS011;30382;48.802;9.388;2023-07-08T07:39:40;6.63;;;5.60;;
44664;SDS011;30382;48.802;9.388;2023-07-08T07:42:26;5.93;;;4.83;;
44664;SDS011;30382;48.802;9.388;2023-07-08T07:45:14;6.50;;;5.80;;
44664;SDS011;30382;48.802;9.388;2023-07-08T07:47:59;5.87;;;5.27;;
44664;SDS011;30382;48.802;9.388;2023-07-08T07:50:47;6.07;;;4.40;;
44664;SDS011;30382;48.802;9.388;2023-07-08T07:53:32;5.10;;;4.50;;
44664;SDS011;30382;48.802;9.388;2023-07-08T07:56:16;6.63;;;5.07;;
44664;SDS011;30382;48.802;9.388;2023-07-08T07:59:00;6.70;;;4.67;;
44664;SDS011;30382;48.802;9.388;2023-07-08T08:01:45;5.90;;;5.30;;
44664;SDS011;30382;48.802;9.388;2023-07-08T08:04:29;7.83;;;6.00;;
44664;SDS011;30382;48.802;9.388;2023-07-08T08:07:14;6.07;;;4.70;;
44664;SDS011;30382;48.802;9.388;2023-07-08T08:09:58;8.03;;;6.23;;
44664;SDS011;30382;48.802;9.388;2023-07-08T08:12:43;5.77;;;4.80;;
44664;SDS011;30382;48.802;9.388;2023-07-08T08:15:27;8.93;;;5.53;;
44664;SDS011;30382;48.802;9.388;2023-07-08T08:18:11;6.27;;;4.90;;
44664;SDS011;30382;48.802;9.388;2023-07-08T08:20:56;6.93;;;5.80;;
44664;SDS011;30382;48.802;9.388;2023-07-08T08:23:40;5.40;;;4.90;;
44664;SDS011;30382;48.802;9.388;2023-07-08T08:26:25;6.10;;;4.80;;
44664;SDS011;30382;48.802;9.388;2023-07-08T08:29:09;7.30;;;5.00;;
44664;SDS011;30382;48.802;9.388;2023-07-08T08:31:53;6.07;;;4.90;;
44664;SDS011;30382;48.802;9.388;2023-07-08T08:34:38;8.20;;;5.43;;
44664;SDS011;30382;48.802;9.388;2023-07-08T08:37:23;6.50;;;4.90;;
44664;SDS011;30382;48.802;9.388;2023-07-08T08:40:10;6.03;;;5.43;;
44664;SDS011;30382;48.802;9.388;2023-07-08T08:42:57;5.90;;;5.17;;
44664;SDS011;30382;48.802;9.388;2023-07-08T08:45:54;6.93;;;5.77;;
44664;SDS011;30382;48.802;9.388;2023-07-08T08:48:48;8.70;;;5.93;;
44664;SDS011;30382;48.802;9.388;2023-07-08T08:51:33;8.87;;;5.10;;
44664;SDS011;30382;48.802;9.388;2023-07-08T08:54:18;6.83;;;5.70;;
44664;SDS011;30382;48.802;9.388;2023-07-08T08:57:07;6.47;;;5.07;;
44664;SDS011;30382;48.802;9.388;2023-07-08T08:59:57;6.77;;;5.00;;
44664;SDS011;30382;48.802;9.388;2023-07-08T09:03:04;5.47;;;4.97;;
44664;SDS011;30382;48.802;9.388;2023-07-08T09:05:52;8.93;;;6.17;;
44664;SDS011;30382;48.802;9.388;2023-07-08T09:08:40;8.10;;;5.00;;
44664;SDS011;30382;48.802;9.388;2023-07-08T09:11:27;6.43;;;5.00;;
44664;SDS011;30382;48.802;9.388;2023-07-08T09:14:21;6.77;;;5.90;;
44664;SDS011;30382;48.802;9.388;2023-07-08T09:22:53;7.30;;;4.90;;
44664;SDS011;30382;48.802;9.388;2023-07-08T09:26:00;6.80;;;5.40;;
44664;SDS011;30382;48.802;9.388;2023-07-08T09:28:47;5.97;;;5.00;;
44664;SDS011;30382;48.802;9.388;2023-07-08T09:31:31;6.67;;;5.07;;
44664;SDS011;30382;48.802;9.388;2023-07-08T09:34:17;5.20;;;4.70;;
44664;SDS011;30382;48.802;9.388;2023-07-08T09:37:02;5.10;;;4.60;;
44664;SDS011;30382;48.802;9.388;2023-07-08T09:39:49;6.17;;;4.60;;
44664;SDS011;30382;48.802;9.388;2023-07-08T09:42:34;5.70;;;5.10;;
44664;SDS011;30382;48.802;9.388;2023-07-08T09:45:20;8.60;;;5.23;;
44664;SDS011;30382;48.802;9.388;2023-07-08T09:48:04;5.10;;;4.40;;
44664;SDS011;30382;48.802;9.388;2023-07-08T09:50:58;7.50;;;4.30;;
44664;SDS011;30382;48.802;9.388;2023-07-08T09:53:42;7.27;;;4.97;;
44664;SDS011;30382;48.802;9.388;2023-07-08T09:56:28;5.97;;;4.70;;
44664;SDS011;30382;48.802;9.388;2023-07-08T09:59:12;4.10;;;3.70;;
44664;SDS011;30382;48.802;9.388;2023-07-08T10:02:02;3.77;;;3.40;;
44664;SDS011;30382;48.802;9.388;2023-07-08T10:04:51;6.40;;;3.00;;
44664;SDS011;30382;48.802;9.388;2023-07-08T10:07:36;3.60;;;3.20;;
44664;SDS011;30382;48.802;9.388;2023-07-08T10:10:30;3.33;;;3.03;;
44664;SDS011;30382;48.802;9.388;2023-07-08T10:16:23;3.83;;;3.53;;
44664;SDS011;30382;48.802;9.388;2023-07-08T10:19:12;5.20;;;3.90;;
44664;SDS011;30382;48.802;9.388;2023-07-08T10:28:01;4.07;;;3.67;;
44664;SDS011;30382;48.802;9.388;2023-07-08T10:42:59;3.73;;;2.57;;
44664;SDS011;30382;48.802;9.388;2023-07-08T10:54:36;3.50;;;2.63;;
44664;SDS011;30382;48.802;9.388;2023-07-08T11:06:22;2.77;;;2.57;;
44664;SDS011;30382;48.802;9.388;2023-07-08T11:09:08;5.17;;;3.13;;
44664;SDS011;30382;48.802;9.388;2023-07-08T11:11:56;3.50;;;2.43;;
44664;SDS011;30382;48.802;9.388;2023-07-08T11:14:42;2.97;;;2.43;;
44664;SDS011;30382;48.802;9.388;2023-07-08T11:17:36;2.93;;;2.60;;
44664;SDS011;30382;48.802;9.388;2023-07-08T11:20:24;4.53;;;2.93;;
44664;SDS011;30382;48.802;9.388;2023-07-08T11:23:17;3.33;;;2.92;;
44664;SDS011;30382;48.802;9.388;2023-07-08T11:29:12;2.60;;;2.40;;
44664;SDS011;30382;48.802;9.388;2023-07-08T11:31:58;4.00;;;3.47;;
44664;SDS011;30382;48.802;9.388;2023-07-08T11:34:44;4.35;;;4.05;;
44664;SDS011;30382;48.802;9.388;2023-07-08T11:37:30;2.83;;;2.63;;
44664;SDS011;30382;48.802;9.388;2023-07-08T11:43:03;2.83;;;2.38;;
44664;SDS011;30382;48.802;9.388;2023-07-08T11:45:50;2.50;;;2.30;;
44664;SDS011;30382;48.802;9.388;2023-07-08T11:48:42;4.20;;;2.83;;
44664;SDS011;30382;48.802;9.388;2023-07-08T11:51:34;3.50;;;2.10;;
44664;SDS011;30382;48.802;9.388;2023-07-08T11:54:27;2.78;;;2.58;;
44664;SDS011;30382;48.802;9.388;2023-07-08T11:57:17;2.78;;;2.58;;
44664;SDS011;30382;48.802;9.388;2023-07-08T12:00:10;2.90;;;2.70;;
44664;SDS011;30382;48.802;9.388;2023-07-08T12:02:57;3.00;;;2.60;;
44664;SDS011;30382;48.802;9.388;2023-07-08T12:05:41;3.20;;;2.13;;
44664;SDS011;30382;48.802;9.388;2023-07-08T12:08:32;4.03;;;2.70;;
44664;SDS011;30382;48.802;9.388;2023-07-08T12:11:17;2.60;;;2.40;;
44664;SDS011;30382;48.802;9.388;2023-07-08T12:14:02;2.92;;;2.72;;
44664;SDS011;30382;48.802;9.388;2023-07-08T12:30:33;2.90;;;2.65;;
44664;SDS011;30382;48.802;9.388;2023-07-08T12:33:29;2.92;;;2.63;;
44664;SDS011;30382;48.802;9.388;2023-07-08T12:36:18;2.55;;;2.35;;
44664;SDS011;30382;48.802;9.388;2023-07-08T12:39:03;2.50;;;2.20;;
44664;SDS011;30382;48.802;9.388;2023-07-08T12:41:48;3.20;;;2.30;;
44664;SDS011;30382;48.802;9.388;2023-07-08T12:44:33;3.88;;;2.70;;
44664;SDS011;30382;48.802;9.388;2023-07-08T12:47:20;2.75;;;2.55;;
44664;SDS011;30382;48.802;9.388;2023-07-08T12:50:05;2.72;;;2.53;;
44664;SDS011;30382;48.802;9.388;2023-07-08T12:52:49;4.57;;;2.45;;
44664;SDS011;30382;48.802;9.388;2023-07-08T12:55:34;2.63;;;2.42;;
44664;SDS011;30382;48.802;9.388;2023-07-08T12:58:25;2.20;;;2.10;;
44664;SDS011;30382;48.802;9.388;2023-07-08T13:01:16;2.75;;;2.03;;
44664;SDS011;30382;48.802;9.388;2023-07-08T13:04:09;2.30;;;2.20;;
44664;SDS011;30382;48.802;9.388;2023-07-08T13:06:54;2.10;;;2.00;;
44664;SDS011;30382;48.802;9.388;2023-07-08T13:09:44;2.53;;;2.33;;
44664;SDS011;30382;48.802;9.388;2023-07-08T13:12:30;3.45;;;2.47;;
44664;SDS011;30382;48.802;9.388;2023-07-08T13:15:18;3.33;;;2.13;;
44664;SDS011;30382;48.802;9.388;2023-07-08T13:18:04;4.68;;;2.38;;
44664;SDS011;30382;48.802;9.388;2023-07-08T13:20:50;2.25;;;2.15;;
44664;SDS011;30382;48.802;9.388;2023-07-08T13:23:36;2.72;;;2.53;;
44664;SDS011;30382;48.802;9.388;2023-07-08T13:26:21;4.30;;;3.00;;
44664;SDS011;30382;48.802;9.388;2023-07-08T13:29:11;2.67;;;2.45;;
44664;SDS011;30382;48.802;9.388;2023-07-08T13:32:01;2.70;;;2.50;;
44664;SDS011;30382;48.802;9.388;2023-07-08T13:34:48;2.70;;;2.50;;
44664;SDS011;30382;48.802;9.388;2023-07-08T13:37:33;3.38;;;3.08;;
44664;SDS011;30382;48.802;9.388;2023-07-08T13:40:17;2.90;;;2.70;;
44664;SDS011;30382;48.802;9.388;2023-07-08T13:43:01;2.40;;;2.15;;
44664;SDS011;30382;48.802;9.388;2023-07-08T13:45:46;5.82;;;2.60;;
44664;SDS011;30382;48.802;9.388;2023-07-08T13:51:19;2.42;;;2.33;;
44664;SDS011;30382;48.802;9.388;2023-07-08T13:54:12;2.80;;;2.60;;
44664;SDS011;30382;48.802;9.388;2023-07-08T13:56:59;2.42;;;2.28;;
44664;SDS011;30382;48.802;9.388;2023-07-08T13:59:44;12.57;;;5.45;;
44664;SDS011;30382;48.802;9.388;2023-07-08T14:02:29;3.35;;;1.85;;
44664;SDS011;30382;48.802;9.388;2023-07-08T14:05:14;2.58;;;2.38;;
44664;SDS011;30382;48.802;9.388;2023-07-08T14:08:12;3.22;;;2.45;;
44664;SDS011;30382;48.802;9.388;2023-07-08T14:10:57;2.80;;;2.60;;
44664;SDS011;30382;48.802;9.388;2023-07-08T14:13:41;2.58;;;2.17;;
44664;SDS011;30382;48.802;9.388;2023-07-08T14:16:29;3.63;;;2.90;;
44664;SDS011;30382;48.802;9.388;2023-07-08T14:19:15;3.42;;;2.47;;
44664;SDS011;30382;48.802;9.388;2023-07-08T14:22:01;4.03;;;2.88;;
44664;SDS011;30382;48.802;9.388;2023-07-08T14:24:46;8.88;;;3.05;;
44664;SDS011;30382;48.802;9.388;2023-07-08T14:27:30;3.60;;;3.10;;
44664;SDS011;30382;48.802;9.388;2023-07-08T14:30:14;4.15;;;3.30;;
44664;SDS011;30382;48.802;9.388;2023-07-08T14:32:59;3.78;;;3.10;;
44664;SDS011;30382;48.802;9.388;2023-07-08T14:35:44;3.05;;;2.85;;
44664;SDS011;30382;48.802;9.388;2023-07-08T14:38:28;4.43;;;3.05;;
44664;SDS011;30382;48.802;9.388;2023-07-08T14:41:12;3.03;;;2.80;;
44664;SDS011;30382;48.802;9.388;2023-07-08T14:43:57;3.58;;;2.83;;
44664;SDS011;30382;48.802;9.388;2023-07-08T14:46:41;4.38;;;3.47;;
44664;SDS011;30382;48.802;9.388;2023-07-08T14:49:26;4.53;;;3.08;;
44664;SDS011;30382;48.802;9.388;2023-07-08T14:52:11;4.45;;;3.40;;
44664;SDS011;30382;48.802;9.388;2023-07-08T14:54:55;5.30;;;3.10;;
44664;SDS011;30382;48.802;9.388;2023-07-08T14:57:44;3.22;;;3.03;;
44664;SDS011;30382;48.802;9.388;2023-07-08T15:00:29;3.17;;;2.60;;
44664;SDS011;30382;48.802;9.388;2023-07-08T15:03:14;3.60;;;3.30;;
44664;SDS011;30382;48.802;9.388;2023-07-08T15:05:58;4.95;;;3.35;;
44664;SDS011;30382;48.802;9.388;2023-07-08T15:08:43;2.85;;;2.63;;
44664;SDS011;30382;48.802;9.388;2023-07-08T15:11:27;3.17;;;2.90;;
44664;SDS011;30382;48.802;9.388;2023-07-08T15:17:01;3.55;;;2.83;;
44664;SDS011;30382;48.802;9.388;2023-07-08T15:19:46;2.80;;;2.60;;
44664;SDS011;30382;48.802;9.388;2023-07-08T15:22:30;3.50;;;3.20;;
44664;SDS011;30382;48.802;9.388;2023-07-08T15:25:15;3.38;;;3.08;;
44664;SDS011;30382;48.802;9.388;2023-07-08T15:27:59;3.58;;;3.28;;
44664;SDS011;30382;48.802;9.388;2023-07-08T15:30:46;3.45;;;3.15;;
44664;SDS011;30382;48.802;9.388;2023-07-08T15:33:30;5.97;;;2.95;;
44664;SDS011;30382;48.802;9.388;2023-07-08T15:36:15;3.65;;;3.35;;
44664;SDS011;30382;48.802;9.388;2023-07-08T15:38:59;3.33;;;2.95;;
44664;SDS011;30382;48.802;9.388;2023-07-08T15:41:43;3.92;;;3.00;;
44664;SDS011;30382;48.802;9.388;2023-07-08T15:44:28;3.53;;;3.20;;
44664;SDS011;30382;48.802;9.388;2023-07-08T15:47:12;3.60;;;3.35;;
44664;SDS011;30382;48.802;9.388;2023-07-08T15:49:57;4.40;;;3.10;;
44664;SDS011;30382;48.802;9.388;2023-07-08T15:52:41;3.67;;;3.38;;
44664;SDS011;30382;48.802;9.388;2023-07-08T15:55:28;3.10;;;2.85;;
44664;SDS011;30382;48.802;9.388;2023-07-08T15:58:26;3.08;;;2.88;;
44664;SDS011;30382;48.802;9.388;2023-07-08T16:01:21;3.40;;;2.92;;
44664;SDS011;30382;48.802;9.388;2023-07-08T16:04:11;3.00;;;2.80;;
44664;SDS011;30382;48.802;9.388;2023-07-08T16:06:59;4.97;;;3.38;;
44664;SDS011;30382;48.802;9.388;2023-07-08T16:09:43;3.50;;;3.20;;
44664;SDS011;30382;48.802;9.388;2023-07-08T16:12:28;4.78;;;3.55;;
44664;SDS011;30382;48.802;9.388;2023-07-08T16:15:16;4.45;;;2.70;;
44664;SDS011;30382;48.802;9.388;2023-07-08T16:18:01;5.70;;;3.33;;
44664;SDS011;30382;48.802;9.388;2023-07-08T16:20:45;3.08;;;2.85;;
44664;SDS011;30382;48.802;9.388;2023-07-08T16:23:29;4.25;;;3.22;;
44664;SDS011;30382;48.802;9.388;2023-07-08T16:26:14;3.55;;;3.25;;
44664;SDS011;30382;48.802;9.388;2023-07-08T16:28:59;3.05;;;2.53;;
44664;SDS011;30382;48.802;9.388;2023-07-08T16:31:44;3.55;;;3.13;;
44664;SDS011;30382;48.802;9.388;2023-07-08T16:34:29;3.22;;;2.85;;
44664;SDS011;30382;48.802;9.388;2023-07-08T16:37:13;3.28;;;2.83;;
44664;SDS011;30382;48.802;9.388;2023-07-08T16:39:58;3.50;;;2.60;;
44664;SDS011;30382;48.802;9.388;2023-07-08T16:42:43;3.42;;;3.08;;
44664;SDS011;30382;48.802;9.388;2023-07-08T16:45:27;11.90;;;11.30;;
44664;SDS011;30382;48.802;9.388;2023-07-08T16:48:12;4.60;;;3.75;;
44664;SDS011;30382;48.802;9.388;2023-07-08T16:50:56;3.45;;;3.15;;
44664;SDS011;30382;48.802;9.388;2023-07-08T16:53:41;7.05;;;3.20;;
44664;SDS011;30382;48.802;9.388;2023-07-08T16:56:25;3.40;;;3.20;;
44664;SDS011;30382;48.802;9.388;2023-07-08T16:59:10;3.90;;;2.83;;
44664;SDS011;30382;48.802;9.388;2023-07-08T17:01:55;3.40;;;2.85;;
44664;SDS011;30382;48.802;9.388;2023-07-08T17:04:39;3.80;;;3.10;;
44664;SDS011;30382;48.802;9.388;2023-07-08T17:07:23;3.25;;;3.05;;
44664;SDS011;30382;48.802;9.388;2023-07-08T17:10:08;4.65;;;3.08;;
44664;SDS011;30382;48.802;9.388;2023-07-08T17:12:53;4.43;;;3.10;;
44664;SDS011;30382;48.802;9.388;2023-07-08T17:15:37;3.60;;;3.30;;
44664;SDS011;30382;48.802;9.388;2023-07-08T17:18:22;3.33;;;3.13;;
44664;SDS011;30382;48.802;9.388;2023-07-08T17:21:07;5.20;;;3.97;;
44664;SDS011;30382;48.802;9.388;2023-07-08T17:23:52;3.77;;;3.00;;
44664;SDS011;30382;48.802;9.388;2023-07-08T17:26:40;3.20;;;2.53;;
44664;SDS011;30382;48.802;9.388;2023-07-08T17:29:24;3.47;;;3.17;;
44664;SDS011;30382;48.802;9.388;2023-07-08T17:32:10;3.43;;;2.67;;
44664;SDS011;30382;48.802;9.388;2023-07-08T17:34:55;4.00;;;3.60;;
44664;SDS011;30382;48.802;9.388;2023-07-08T17:37:40;3.80;;;3.37;;
44664;SDS011;30382;48.802;9.388;2023-07-08T17:40:26;3.80;;;3.50;;
44664;SDS011;30382;48.802;9.388;2023-07-08T17:43:10;3.97;;;3.07;;
44664;SDS011;30382;48.802;9.388;2023-07-08T17:45:54;5.13;;;3.07;;
44664;SDS011;30382;48.802;9.388;2023-07-08T17:48:39;5.00;;;3.10;;
44664;SDS011;30382;48.802;9.388;2023-07-08T17:51:25;3.37;;;3.00;;
44664;SDS011;30382;48.802;9.388;2023-07-08T17:54:13;4.80;;;2.37;;